Time;durP1;ratioP1;P1;durP2;ratioP2;P2;SDS_P1;SDS_P2;PMS_P1;PMS_P2;Temp;Humidity;BMP_temperature;BMP_pressure;BME280_temperature;BME280_humidity;BME280_pressure;Samples;Min_cycle;Max_cycle;Signal;HPM_P1;HPM_P2
2022/04/28 00:00:49;;;;;;;4.32;2.75;;;;;;;8.27;nan;100159.28;4942720;28;21119;-76
2022/04/28 00:03:15;;;;;;;3.72;3.25;;;;;;;8.29;nan;100166.16;4945542;28;20506;-76
2022/04/28 00:05:44;;;;;;;3.65;3.30;;;;;;;8.28;nan;100168.81;4946331;28;20244;-78
2022/04/28 00:08:13;;;;;;;2.72;2.53;;;;;;;8.26;nan;100168.03;4947334;28;20250;-77
2022/04/28 00:10:40;;;;;;;4.63;3.38;;;;;;;8.24;nan;100170.75;4947149;28;20216;-77
2022/04/28 00:13:08;;;;;;;3.58;2.70;;;;;;;8.18;nan;100171.88;4943301;28;20252;-77
2022/04/28 00:15:34;;;;;;;2.30;2.10;;;;;;;8.15;nan;100179.81;4954841;28;20201;-77
2022/04/28 00:18:00;;;;;;;6.68;2.83;;;;;;;8.14;nan;100177.31;4934985;28;20684;-78
2022/04/28 00:20:26;;;;;;;2.90;2.60;;;;;;;8.13;nan;100171.22;4956372;28;20224;-78
2022/04/28 00:22:53;;;;;;;3.25;2.75;;;;;;;8.14;nan;100175.53;4955336;28;20609;-77
2022/04/28 00:25:21;;;;;;;3.05;2.20;;;;;;;8.08;nan;100167.97;4935047;28;20258;-77
2022/04/28 00:27:50;;;;;;;5.45;3.38;;;;;;;8.02;nan;100167.34;4953810;28;20213;-78
2022/04/28 00:30:16;;;;;;;4.45;3.33;;;;;;;7.92;nan;100162.53;4950136;28;20201;-78
2022/04/28 00:32:43;;;;;;;5.88;4.32;;;;;;;7.88;nan;100171.44;4952769;28;20489;-79
2022/04/28 00:35:09;;;;;;;3.15;2.85;;;;;;;7.79;nan;100150.91;4943586;28;20216;-79
2022/04/28 00:37:40;;;;;;;4.00;3.70;;;;;;;7.80;nan;100173.53;4953871;28;20336;-78
2022/04/28 00:40:06;;;;;;;3.17;2.95;;;;;;;7.76;nan;100158.91;4932652;28;20340;-77
2022/04/28 00:42:33;;;;;;;4.53;3.85;;;;;;;7.75;nan;100165.91;4959243;28;20419;-79
2022/04/28 00:44:58;;;;;;;3.97;3.00;;;;;;;7.72;nan;100160.81;4939473;28;20239;-76
2022/04/28 00:50:38;;;;;;;5.10;3.47;;;;;;;7.67;nan;100154.94;4949379;28;20201;-78
2022/04/28 00:52:58;;;;;;;3.90;3.35;;;;;;;7.57;nan;100153.59;4955386;28;20713;-78
2022/04/28 00:55:28;;;;;;;4.38;2.90;;;;;;;7.54;nan;100151.13;4939847;28;20666;-78
2022/04/28 00:57:54;;;;;;;3.47;3.15;;;;;;;7.53;nan;100157.25;4941476;28;20224;-77
2022/04/28 01:00:23;;;;;;;6.20;4.10;;;;;;;7.46;nan;100153.22;4938391;28;20594;-76
2022/04/28 01:02:50;;;;;;;5.13;4.20;;;;;;;7.45;nan;100157.59;4939772;28;20523;-76
2022/04/28 01:05:16;;;;;;;3.45;3.08;;;;;;;7.43;nan;100154.19;4955901;28;20213;-77
2022/04/28 01:07:45;;;;;;;4.78;3.72;;;;;;;7.46;nan;100159.28;4956313;28;20644;-77
2022/04/28 01:10:12;;;;;;;4.85;3.35;;;;;;;7.44;nan;100157.66;4942562;28;20243;-77
2022/04/28 01:12:37;;;;;;;2.80;2.50;;;;;;;;;;4946833;28;20248;-77
2022/04/28 01:15:05;;;;;;;5.22;3.55;;;;;;;;;;4962606;28;20214;-77
2022/04/28 01:17:31;;;;;;;4.72;3.83;;;;;;;;;;4966599;28;20287;-77
2022/04/28 01:20:00;;;;;;;3.75;3.30;;;;;;;;;;4950013;28;20283;-77
2022/04/28 01:22:29;;;;;;;3.08;2.78;;;;;;;;;;4950566;28;20343;-80
2022/04/28 01:24:55;;;;;;;4.05;3.17;;;;;;;;;;4951784;28;20724;-75
2022/04/28 01:27:21;;;;;;;4.03;3.30;;;;;;;;;;4948784;28;20206;-77
2022/04/28 01:29:47;;;;;;;4.40;3.08;;;;;;;;;;4969174;28;20223;-79
2022/04/28 01:32:13;;;;;;;4.40;4.00;;;;;;;;;;4950346;28;20221;-77
2022/04/28 01:34:42;;;;;;;3.88;3.47;;;;;;;;;;4951423;28;21357;-76
2022/04/28 01:37:11;;;;;;;5.00;3.70;;;;;;;;;;4951160;28;20193;-76
2022/04/28 01:39:38;;;;;;;4.80;3.90;;;;;;;;;;4950893;28;20697;-76
2022/04/28 01:42:05;;;;;;;3.90;3.43;;;;;;;;;;4948836;28;20323;-77
2022/04/28 01:44:35;;;;;;;4.97;4.55;;;;;;;;;;4950777;28;20238;-78
2022/04/28 01:47:03;;;;;;;3.30;3.00;;;;;;;;;;4964884;28;20227;-77
2022/04/28 01:49:52;;;;;;;4.07;3.67;;;;;;;;;;4967911;28;20734;-77
2022/04/28 01:55:39;;;;;;;4.78;3.60;;;;;;;;;;4950026;28;20212;-78
2022/04/28 01:58:14;;;;;;;5.43;3.58;;;;;;;;;;4950506;28;20223;-79
2022/04/28 02:00:55;;;;;;;5.60;4.07;;;;;;;;;;4950482;28;20219;-77
2022/04/28 02:03:22;;;;;;;4.05;3.58;;;;;;;;;;4963457;28;20595;-78
2022/04/28 02:05:51;;;;;;;3.53;3.22;;;;;;;;;;4967124;28;20219;-80
2022/04/28 02:08:16;;;;;;;4.32;3.90;;;;;;;;;;4967352;28;20204;-78
2022/04/28 02:10:44;;;;;;;5.07;3.60;;;;;;;;;;4949540;28;20593;-76
2022/04/28 02:13:28;;;;;;;4.97;3.47;;;;;;;;;;4967706;28;20562;-76
2022/04/28 02:16:12;;;;;;;4.75;3.75;;;;;;;;;;4970179;28;20612;-77
2022/04/28 02:19:06;;;;;;;4.75;4.25;;;;;;;;;;4952970;28;20222;-77
2022/04/28 02:21:35;;;;;;;3.63;2.58;;;;;;;;;;4952531;28;20634;-78
2022/04/28 02:24:00;;;;;;;3.30;3.00;;;;;;;;;;4968388;28;20767;-76
2022/04/28 02:26:27;;;;;;;3.73;3.40;;;;;;;;;;4970249;28;20208;-77
2022/04/28 02:28:52;;;;;;;4.22;3.20;;;;;;;;;;4953316;28;20697;-77
2022/04/28 02:31:19;;;;;;;3.30;3.00;;;;;;;;;;4951294;28;20618;-75
2022/04/28 02:33:45;;;;;;;5.60;4.50;;;;;;;;;;4935867;28;20370;-76
2022/04/28 02:36:21;;;;;;;8.45;4.45;;;;;;;;;;4961972;28;20478;-77
2022/04/28 02:38:51;;;;;;;3.58;3.20;;;;;;;;;;4952264;28;20212;-77
2022/04/28 02:41:20;;;;;;;3.95;3.00;;;;;;;;;;4951305;28;20220;-76
2022/04/28 02:43:49;;;;;;;4.28;3.85;;;;;;;;;;4968564;28;20208;-77
2022/04/28 02:46:15;;;;;;;4.35;3.95;;;;;;;;;;4968896;28;20628;-77
2022/04/28 02:48:53;;;;;;;5.05;3.90;;;;;;;;;;4968905;28;20207;-76
2022/04/28 02:51:20;;;;;;;4.45;4.05;;;;;;;;;;4952390;28;20637;-77
2022/04/28 02:53:46;;;;;;;4.55;4.15;;;;;;;;;;4950274;28;20268;-77
2022/04/28 02:56:13;;;;;;;6.38;4.05;;;;;;;;;;4952550;28;20231;-73
2022/04/28 02:58:39;;;;;;;4.22;3.83;;;;;;;;;;4951568;28;20207;-77
2022/04/28 03:01:06;;;;;;;4.80;3.95;;;;;;;;;;4968101;28;20270;-77
2022/04/28 03:03:32;;;;;;;5.95;4.28;;;;;;;;;;4957929;28;20244;-74
2022/04/28 03:11:30;;;;;;;5.00;4.28;;;;;;;;;;4958468;28;20238;-75
2022/04/28 03:13:56;;;;;;;6.07;5.10;;;;;;;;;;4949361;28;20264;-79
2022/04/28 03:16:24;;;;;;;4.38;3.97;;;;;;;;;;4951600;28;20471;-77
2022/04/28 03:19:00;;;;;;;5.75;4.43;;;;;;;;;;4951184;28;20216;-77
2022/04/28 03:21:26;;;;;;;8.73;5.13;;;;;;;;;;4950906;28;20278;-75
2022/04/28 03:23:52;;;;;;;6.53;5.25;;;;;;;5.76;nan;100199.69;4949350;28;20514;-77
2022/04/28 03:26:21;;;;;;;5.43;3.57;;;;;;;5.82;nan;100206.44;4967649;28;20266;-75
2022/04/28 03:28:52;;;;;;;5.65;4.85;;;;;;;5.83;nan;100214.19;4951941;28;21020;-73
2022/04/28 03:31:35;;;;;;;5.25;3.90;;;;;;;5.85;nan;100203.72;4954832;28;20285;-76
2022/04/28 03:34:23;;;;;;;5.53;3.50;;;;;;;5.84;nan;100215.91;4969858;28;20295;-74
2022/04/28 03:36:51;;;;;;;5.03;4.50;;;;;;;5.79;nan;100210.00;4952862;28;20222;-77
2022/04/28 03:39:24;;;;;;;4.30;3.90;;;;;;;5.79;nan;100211.75;4952533;28;20259;-77
2022/04/28 03:41:53;;;;;;;5.20;4.60;;;;;;;5.76;nan;100215.31;4967956;28;20323;-76
2022/04/28 03:44:20;;;;;;;4.30;4.00;;;;;;;5.76;nan;100216.16;4970882;28;20463;-78
2022/04/28 03:46:46;;;;;;;6.82;5.13;;;;;;;5.77;nan;100217.00;4971576;28;20215;-76
2022/04/28 03:49:12;;;;;;;3.90;3.60;;;;;;;5.80;nan;100218.66;4973024;28;20227;-74
2022/04/28 03:51:39;;;;;;;7.78;4.65;;;;;;;5.84;nan;100218.50;4957050;28;20227;-77
2022/04/28 03:54:08;;;;;;;6.03;4.15;;;;;;;5.85;nan;100219.38;4968182;28;20219;-77
2022/04/28 03:56:35;;;;;;;5.38;4.20;;;;;;;5.82;nan;100219.47;4955801;28;20400;-76
2022/04/28 03:59:09;;;;;;;5.93;4.35;;;;;;;5.80;nan;100226.47;4974772;28;20264;-75
2022/04/28 04:01:58;;;;;;;6.15;4.80;;;;;;;5.72;nan;100230.19;4937477;28;20243;-75
2022/04/28 04:04:26;;;;;;;4.47;4.07;;;;;;;5.71;nan;100225.03;4956522;28;20251;-76
2022/04/28 04:06:59;;;;;;;6.13;5.53;;;;;;;5.72;nan;100232.78;4976465;28;20204;-77
2022/04/28 04:09:48;;;;;;;5.57;4.90;;;;;;;5.73;nan;100236.28;4979953;28;20223;-76
2022/04/28 04:12:20;;;;;;;8.20;4.60;;;;;;;5.73;nan;100237.13;4910801;28;1531569;-75
2022/04/28 04:15:10;;;;;;;4.47;4.07;;;;;;;5.71;nan;100238.09;4926659;28;21011;-76
2022/04/28 04:17:51;;;;;;;6.30;4.45;;;;;;;5.68;nan;100240.78;4978858;28;20713;-75
2022/04/28 04:20:22;;;;;;;5.05;4.57;;;;;;;5.68;nan;100241.63;4951649;28;20430;-76
2022/04/28 04:22:54;;;;;;;6.75;4.93;;;;;;;5.66;nan;100251.25;4960461;28;20236;-76
2022/04/28 04:25:21;;;;;;;5.00;4.28;;;;;;;5.63;nan;100250.50;4958816;28;20262;-77
2022/04/28 04:27:51;;;;;;;6.80;4.60;;;;;;;5.59;nan;100243.69;4959516;28;20255;-78
2022/04/28 04:33:20;;;;;;;6.15;5.45;;;;;;;5.58;nan;100258.47;4966877;28;20477;-75
2022/04/28 04:35:47;;;;;;;6.80;5.83;;;;;;;5.58;nan;100255.03;4978052;28;20203;-74
2022/04/28 04:38:13;;;;;;;6.07;5.07;;;;;;;5.57;nan;100262.00;4971250;28;20857;-74
2022/04/28 04:40:40;;;;;;;5.50;5.00;;;;;;;5.63;nan;100250.50;4977719;28;20509;-76
2022/04/28 04:43:13;;;;;;;7.15;6.53;;;;;;;5.66;nan;100260.84;4960677;28;20240;-73
2022/04/28 04:45:43;;;;;;;9.50;5.43;;;;;;;5.65;nan;100266.97;4959796;28;20633;-75
2022/04/28 04:48:35;;;;;;;5.10;4.55;;;;;;;5.71;nan;100269.34;4956642;28;20207;-75
2022/04/28 04:51:08;;;;;;;6.93;5.85;;;;;;;5.76;nan;100272.66;4961876;28;20196;-76
2022/04/28 04:53:42;;;;;;;6.85;5.82;;;;;;;5.80;nan;100278.63;4969182;28;20253;-73
2022/04/28 04:56:07;;;;;;;7.90;5.70;;;;;;;5.86;nan;100268.84;4958180;28;20204;-75
2022/04/28 04:58:33;;;;;;;7.43;6.30;;;;;;;6.18;nan;100274.75;4957841;28;20244;-75
2022/04/28 05:00:58;;;;;;;7.43;5.37;;;;;;;6.71;nan;100274.56;4973943;28;20216;-75
2022/04/28 05:03:24;;;;;;;5.63;4.90;;;;;;;7.33;nan;100275.69;4972252;28;20236;-74
2022/04/28 05:06:01;;;;;;;5.85;5.28;;;;;;;7.97;nan;100275.69;4968488;28;20299;-76
2022/04/28 05:08:30;;;;;;;6.32;5.13;;;;;;;8.59;nan;100275.69;4968151;28;20204;-75
2022/04/28 05:11:01;;;;;;;6.10;4.50;;;;;;;9.14;nan;100273.13;4951386;28;20212;-75
2022/04/28 05:13:27;;;;;;;4.93;4.20;;;;;;;9.72;nan;100269.47;4950952;28;20246;-76
2022/04/28 05:15:54;;;;;;;4.55;4.15;;;;;;;10.14;nan;100273.50;4952185;28;20242;-74
2022/04/28 05:18:34;;;;;;;5.88;5.13;;;;;;;10.61;nan;100272.81;4950956;28;20203;-75
2022/04/28 05:21:14;;;;;;;6.30;5.70;;;;;;;11.07;nan;100286.09;4969070;28;20223;-73
2022/04/28 05:24:12;;;;;;;7.30;5.90;;;;;;;11.73;nan;100285.03;4971693;28;20771;-74
2022/04/28 05:26:56;;;;;;;7.03;6.28;;;;;;;12.20;nan;100276.16;4973627;28;20267;-74
2022/04/28 05:29:53;;;;;;;6.35;5.35;;;;;;;12.43;nan;100277.41;4938964;28;20735;-75
2022/04/28 05:32:48;;;;;;;6.53;6.00;;;;;;;12.87;nan;100278.25;4957415;28;20838;-75
2022/04/28 05:35:40;;;;;;;7.72;6.43;;;;;;;12.88;nan;100277.31;4968723;28;20227;-76
2022/04/28 05:38:08;;;;;;;6.68;5.57;;;;;;;13.12;nan;100277.56;4957736;28;20216;-76
2022/04/28 05:40:33;;;;;;;5.97;5.40;;;;;;;13.44;nan;100280.81;4956799;28;20453;-74
2022/04/28 05:45:57;;;;;;;6.43;5.28;;;;;;;14.20;nan;100277.50;4929077;28;20252;-75
2022/04/28 05:48:23;;;;;;;6.43;5.82;;;;;;;14.32;nan;100279.31;4973824;28;20209;-75
2022/04/28 05:50:53;;;;;;;6.20;5.43;;;;;;;14.37;nan;100277.22;4955320;28;20188;-75
2022/04/28 05:53:20;;;;;;;7.18;5.70;;;;;;;14.48;nan;100286.19;4956541;28;20190;-76
2022/04/28 05:55:51;;;;;;;6.80;6.20;;;;;;;14.70;nan;100280.28;4944084;28;20489;-72
2022/04/28 05:58:18;;;;;;;6.05;5.60;;;;;;;14.96;nan;100284.59;4969530;28;20201;-73
2022/04/28 06:00:51;;;;;;;6.60;6.00;;;;;;;15.22;nan;100287.16;4966792;28;20694;-75
2022/04/28 06:03:16;;;;;;;9.80;6.00;;;;;;;15.11;nan;100293.22;4951768;28;20237;-74
2022/04/28 06:05:56;;;;;;;6.93;6.10;;;;;;;15.22;nan;100298.59;4968577;28;20448;-76
2022/04/28 06:08:22;;;;;;;8.10;6.90;;;;;;;15.38;nan;100289.53;4951983;28;20194;-75
2022/04/28 06:10:48;;;;;;;7.53;6.63;;;;;;;15.45;nan;100302.22;4951283;29;20198;-75
2022/04/28 06:13:13;;;;;;;8.23;5.93;;;;;;;15.82;nan;100301.34;4624209;28;10000730;-76
2022/04/28 06:16:11;;;;;;;9.30;6.30;;;;;;;16.37;nan;100299.84;4946500;29;20464;-75
2022/04/28 06:18:44;;;;;;;7.38;6.68;;;;;;;16.76;nan;100297.69;4964188;28;20616;-75
2022/04/28 06:21:29;;;;;;;8.68;6.75;;;;;;;17.02;nan;100304.47;4950642;28;20248;-76
2022/04/28 06:23:55;;;;;;;8.57;6.73;;;;;;;17.25;nan;100301.78;4965977;28;20196;-74
2022/04/28 06:26:20;;;;;;;7.50;6.80;;;;;;;17.44;nan;100299.34;4949755;28;20195;-76
2022/04/28 06:28:45;;;;;;;7.10;6.50;;;;;;;17.65;nan;100295.88;4959739;28;20189;-76
2022/04/28 06:31:12;;;;;;;6.97;6.27;;;;;;;17.95;nan;100303.16;4960958;28;20189;-75
2022/04/28 06:33:43;;;;;;;6.37;5.77;;;;;;;18.20;nan;100299.31;4946943;28;20712;-76
2022/04/28 06:36:21;;;;;;;8.00;7.30;;;;;;;18.48;nan;100304.94;4945227;28;20498;-73
2022/04/28 06:38:48;;;;;;;8.10;7.30;;;;;;;18.67;nan;100302.38;4939799;28;20514;-76
2022/04/28 06:41:13;;;;;;;7.67;5.70;;;;;;;18.96;nan;100307.00;4937919;28;20471;-74
2022/04/28 06:43:45;;;;;;;8.10;7.30;;;;;;;19.17;nan;100302.47;4951394;28;20268;-74
2022/04/28 06:46:28;;;;;;;7.00;6.40;;;;;;;19.27;nan;100310.47;4943017;28;20803;-73
2022/04/28 06:49:13;;;;;;;7.47;6.70;;;;;;;19.39;nan;100309.38;4939155;28;20469;-75
2022/04/28 06:51:50;;;;;;;6.90;6.20;;;;;;;19.37;nan;100305.16;4939384;28;20462;-73
2022/04/28 06:54:36;;;;;;;7.57;6.83;;;;;;;19.37;nan;100311.31;4907342;28;20818;-75
2022/04/28 06:57:02;;;;;;;7.77;6.97;;;;;;;19.42;nan;100306.44;4939591;28;20946;-73
2022/04/28 06:59:31;;;;;;;6.97;6.27;;;;;;;19.59;nan;100307.56;4955911;28;20215;-74
2022/04/28 07:01:57;;;;;;;7.60;6.80;;;;;;;19.54;nan;100314.31;4956803;28;20469;-75
2022/04/28 07:04:23;;;;;;;7.93;7.13;;;;;;;19.43;nan;100312.59;4961019;28;20670;-75
2022/04/28 07:06:49;;;;;;;6.90;6.20;;;;;;;19.35;nan;100313.28;4947391;28;20236;-76
2022/04/28 07:09:15;;;;;;;8.13;7.33;;;;;;;19.36;nan;100316.78;4959774;28;20449;-73
2022/04/28 07:11:40;;;;;;;8.07;7.27;;;;;;;19.46;nan;100312.31;4944530;28;20594;-74
2022/04/28 07:14:24;;;;;;;7.80;7.00;;;;;;;19.51;nan;100309.25;4963923;28;20230;-74
2022/04/28 07:17:08;;;;;;;6.77;6.00;;;;;;;19.66;nan;100314.06;4963249;28;20675;-72
2022/04/28 07:19:42;;;;;;;8.40;7.60;;;;;;;19.97;nan;100310.44;4963594;28;20537;-72
2022/04/28 07:22:08;;;;;;;7.30;6.50;;;;;;;20.21;nan;100312.66;4944668;28;20463;-75
2022/04/28 07:24:35;;;;;;;7.83;7.03;;;;;;;20.33;nan;100308.84;4944247;28;20261;-74
2022/04/28 07:27:02;;;;;;;8.10;7.20;;;;;;;20.59;nan;100313.59;4961889;28;20186;-72
2022/04/28 07:29:28;;;;;;;9.63;7.40;;;;;;;20.85;nan;100311.13;4960850;28;20429;-76
2022/04/28 07:32:08;;;;;;;7.30;6.70;;;;;;;20.80;nan;100313.38;4773424;28;5001686;-73
2022/04/28 07:34:52;;;;;;;9.90;6.60;;;;;;;20.72;nan;100311.44;4962845;28;20575;-76
2022/04/28 07:37:36;;;;;;;8.23;7.43;;;;;;;20.89;nan;100313.34;4965444;28;20414;-76
2022/04/28 07:40:20;;;;;;;6.43;5.67;;;;;;;21.26;nan;100314.31;4964866;28;21158;-74
2022/04/28 07:42:52;;;;;;;5.63;4.90;;;;;;;21.36;nan;100310.59;4955236;28;20485;-74
2022/04/28 07:45:19;;;;;;;6.00;5.47;;;;;;;21.68;nan;100313.75;4969284;28;20444;-72
2022/04/28 07:47:45;;;;;;;5.97;5.47;;;;;;;21.94;nan;100311.16;4957408;28;20444;-73
2022/04/28 07:50:17;;;;;;;7.03;6.33;;;;;;;22.19;nan;100309.56;4972081;28;20448;-73
2022/04/28 07:52:44;;;;;;;5.57;5.03;;;;;;;22.14;nan;100314.50;4973140;28;20478;-72
2022/04/28 07:55:11;;;;;;;8.13;6.17;;;;;;;22.01;nan;100323.78;4972426;28;20211;-75
2022/04/28 07:57:37;;;;;;;6.67;6.00;;;;;;;21.93;nan;100317.50;4954170;28;20481;-74
2022/04/28 08:00:05;;;;;;;6.00;5.40;;;;;;;21.92;nan;100321.19;4958343;28;20225;-73
2022/04/28 08:02:41;;;;;;;7.00;5.97;;;;;;;22.01;nan;100325.63;4975929;28;20776;-73
2022/04/28 08:05:08;;;;;;;6.60;6.00;;;;;;;22.30;nan;100326.22;4953064;28;20485;-76
2022/04/28 08:07:34;;;;;;;6.50;4.70;;;;;;;22.23;nan;100330.50;4968443;28;20449;-75
2022/04/28 08:10:06;;;;;;;5.23;4.70;;;;;;;22.24;nan;100324.16;4949272;28;20460;-73
2022/04/28 08:12:33;;;;;;;6.37;4.50;;;;;;;22.25;nan;100328.53;4948434;28;20709;-77
2022/04/28 08:15:01;;;;;;;5.80;5.20;;;;;;;22.50;nan;100328.69;4956977;28;20203;-76
2022/04/28 08:17:27;;;;;;;5.50;5.00;;;;;;;22.54;nan;100325.53;4958217;28;20465;-74
2022/04/28 08:19:52;;;;;;;5.37;4.87;;;;;;;22.57;nan;100327.06;4941859;28;20364;-77
2022/04/28 08:22:18;;;;;;;6.73;4.80;;;;;;;22.60;nan;100331.25;4957655;28;20223;-74
2022/04/28 08:24:44;;;;;;;4.70;4.30;;;;;;;22.60;nan;100324.09;4940856;28;20949;-75
2022/04/28 08:27:09;;;;;;;4.87;4.47;;;;;;;22.69;nan;100325.81;4957509;28;20213;-76
2022/04/28 08:29:35;;;;;;;5.87;5.37;;;;;;;22.67;nan;100330.47;4941459;28;20295;-76
2022/04/28 08:32:10;;;;;;;4.63;4.20;;;;;;;22.31;nan;100332.41;4956624;28;20225;-74
2022/04/28 08:34:36;;;;;;;5.17;4.50;;;;;;;22.29;nan;100332.56;4940733;28;20995;-73
2022/04/28 08:37:02;;;;;;;5.50;5.00;;;;;;;22.22;nan;100334.16;4958765;28;20460;-75
2022/04/28 08:39:28;;;;;;;4.97;4.50;;;;;;;21.96;nan;100333.25;4958064;28;20485;-76
2022/04/28 08:41:55;;;;;;;6.70;5.17;;;;;;;21.62;nan;100339.28;4961890;28;20569;-75
2022/04/28 08:44:25;;;;;;;4.40;3.93;;;;;;;21.76;nan;100327.22;4962264;28;20439;-74
2022/04/28 08:47:10;;;;;;;21.70;4.73;;;;;;;21.79;nan;100338.47;4963518;28;20261;-73
2022/04/28 08:49:42;;;;;;;4.97;4.50;;;;;;;21.92;nan;100337.22;4961890;28;20589;-76
2022/04/28 08:52:29;;;;;;;5.57;5.07;;;;;;;21.87;nan;100337.69;4962477;28;20479;-73
2022/04/28 08:55:03;;;;;;;4.60;4.10;;;;;;;21.71;nan;100343.72;4961960;28;21096;-73
2022/04/28 08:57:31;;;;;;;5.70;5.20;;;;;;;21.49;nan;100341.47;4946194;28;20680;-75
2022/04/28 08:59:56;;;;;;;4.80;4.27;;;;;;;21.09;nan;100334.59;4943741;28;20500;-73
2022/04/28 09:02:24;;;;;;;5.20;4.70;;;;;;;21.07;nan;100339.28;4947117;28;20476;-75
2022/04/28 09:05:02;;;;;;;4.73;4.33;;;;;;;21.01;nan;100343.38;4961068;28;20535;-75
2022/04/28 09:07:46;;;;;;;3.83;3.53;;;;;;;21.00;nan;100336.34;4963762;28;21003;-73
2022/04/28 09:10:40;;;;;;;3.80;3.50;;;;;;;20.96;nan;100338.47;4963968;28;20470;-76
2022/04/28 09:16:14;;;;;;;3.63;3.33;;;;;;;21.26;nan;100331.16;4944678;28;20515;-74
2022/04/28 09:18:40;;;;;;;4.27;3.93;;;;;;;21.39;nan;100334.34;4961565;28;21000;-74
2022/04/28 09:21:07;;;;;;;3.87;3.40;;;;;;;21.52;nan;100326.00;4945255;28;20272;-75
2022/04/28 09:23:35;;;;;;;3.50;2.83;;;;;;;21.60;nan;100325.22;4962265;28;20479;-75
2022/04/28 09:26:01;;;;;;;4.97;3.60;;;;;;;21.41;nan;100323.50;4958434;28;20449;-74
2022/04/28 09:28:29;;;;;;;3.40;3.10;;;;;;;21.28;nan;100323.84;4960163;28;20459;-74
2022/04/28 09:30:56;;;;;;;4.43;3.90;;;;;;;21.26;nan;100328.50;4946018;28;20472;-75
2022/04/28 09:33:41;;;;;;;4.57;2.80;;;;;;;21.13;nan;100318.16;4960990;28;20503;-73
2022/04/28 09:36:33;;;;;;;3.43;2.53;;;;;;;21.12;nan;100318.31;4949374;28;21042;-75
2022/04/28 09:39:11;;;;;;;3.50;3.20;;;;;;;21.22;nan;100321.75;4955415;28;20470;-75
2022/04/28 09:44:28;;;;;;;3.50;3.00;;;;;;;21.68;nan;100324.44;4955295;28;20952;-73
2022/04/28 09:47:01;;;;;;;4.00;3.60;;;;;;;21.29;nan;100322.84;4955732;28;20492;-73
2022/04/28 09:49:28;;;;;;;3.00;2.67;;;;;;;20.93;nan;100313.91;4945487;28;20456;-74
2022/04/28 09:52:25;;;;;;;3.20;2.70;;;;;;;21.24;nan;100311.75;4961258;28;20222;-74
2022/04/28 09:55:04;;;;;;;2.63;2.37;;;;;;;21.41;nan;100302.13;4943566;28;20459;-74
2022/04/28 09:57:46;;;;;;;3.33;3.03;;;;;;;21.53;nan;100306.28;4949290;28;20467;-73
2022/04/28 10:00:13;;;;;;;3.40;3.03;;;;;;;21.61;nan;100300.19;4947258;28;20491;-72
2022/04/28 10:02:54;;;;;;;3.63;3.07;;;;;;;21.69;nan;100292.22;4959455;28;20598;-73
2022/04/28 10:05:20;;;;;;;3.97;2.77;;;;;;;21.81;nan;100291.00;4960877;28;20485;-75
2022/04/28 10:07:55;;;;;;;2.83;2.43;;;;;;;21.87;nan;100289.53;4961451;28;20468;-75
2022/04/28 10:10:21;;;;;;;2.90;2.70;;;;;;;22.03;nan;100296.84;4958796;28;20496;-75
2022/04/28 10:12:48;;;;;;;3.40;3.10;;;;;;;22.06;nan;100305.44;4960830;28;20541;-73
2022/04/28 10:15:24;;;;;;;3.30;3.00;;;;;;;22.06;nan;100299.22;4976779;28;20524;-74
2022/04/28 10:20:31;;;;;;;3.37;2.40;;;;;;;21.99;nan;100299.00;4978459;28;20492;-90
2022/04/28 10:23:15;;;;;;;4.60;3.10;;;;;;;21.95;nan;100297.63;4980248;28;20466;-90
2022/04/28 10:35:07;;;;;;;3.70;3.03;;;;;;;21.58;nan;100297.81;4979693;28;20492;-92
2022/04/28 10:37:41;;;;;;;2.97;2.67;;;;;;;21.73;nan;100296.25;4981357;28;20539;-89
2022/04/28 10:40:13;;;;;;;1.90;1.77;;;;;;;21.82;nan;100292.69;4977116;28;20513;-89
2022/04/28 10:42:39;;;;;;;3.60;2.70;;;;;;;21.85;nan;100295.06;4979778;28;20243;-90
2022/04/28 10:45:25;;;;;;;3.10;2.40;;;;;;;22.00;nan;100291.81;4978841;28;20528;-90
2022/04/28 10:51:32;;;;;;;4.93;3.20;;;;;;;22.02;nan;100295.19;4978223;28;20572;-89
2022/04/28 10:54:05;;;;;;;3.43;2.70;;;;;;;22.08;nan;100297.25;4980151;28;21313;-89
2022/04/28 10:56:39;;;;;;;2.83;2.47;;;;;;;22.24;nan;100294.72;4986299;28;20585;-89
2022/04/28 10:59:34;;;;;;;7.83;2.70;;;;;;;22.21;nan;100300.38;4981078;28;20463;-88
2022/04/28 11:02:28;;;;;;;2.00;1.90;;;;;;;22.06;nan;100301.91;4979893;28;20271;-91
2022/04/28 11:05:04;;;;;;;6.60;2.80;;;;;;;22.15;nan;100297.47;4975679;28;20460;-91
2022/04/28 11:07:46;;;;;;;5.03;2.47;;;;;;;22.05;nan;100286.84;4992142;28;20490;-88
2022/04/28 11:10:18;;;;;;;3.03;2.83;;;;;;;21.88;nan;100294.75;4982282;28;20461;-88
2022/04/28 11:12:46;;;;;;;2.73;2.53;;;;;;;21.86;nan;100285.19;4983436;28;20458;-89
2022/04/28 11:15:27;;;;;;;;;;;;;;;;;;;;;
2022/04/28 11:17:57;;;;;;;2.77;2.57;;;;;;;21.97;nan;100287.63;5004710;28;20470;-90
2022/04/28 11:20:23;;;;;;;1.90;1.80;;;;;;;21.97;nan;100292.97;5005648;28;20519;-89
2022/04/28 11:23:04;;;;;;;1.93;1.83;;;;;;;22.09;nan;100285.56;4986993;28;20454;-90
2022/04/28 11:25:29;;;;;;;2.50;2.30;;;;;;;22.15;nan;100292.97;5006358;28;20461;-87
2022/04/28 11:27:57;;;;;;;2.70;2.10;;;;;;;22.14;nan;100290.41;5009651;28;20533;-90
2022/04/28 11:30:25;;;;;;;2.63;2.40;;;;;;;22.08;nan;100290.03;4994948;28;20918;-89
2022/04/28 11:33:04;;;;;;;3.07;2.77;;;;;;;22.10;nan;100288.06;5006396;28;20909;-89
2022/04/28 11:35:34;;;;;;;2.83;2.10;;;;;;;22.16;nan;100275.88;5001831;28;20454;-87
2022/04/28 11:38:00;;;;;;;2.60;2.40;;;;;;;22.11;nan;100286.22;5002752;28;20470;-88
2022/04/28 11:40:27;;;;;;;2.03;1.90;;;;;;;22.02;nan;100285.31;5001709;28;20490;-89
2022/04/28 11:43:00;;;;;;;2.30;2.20;;;;;;;21.98;nan;100275.94;5000192;28;20476;-90
2022/04/28 11:45:36;;;;;;;2.60;2.10;;;;;;;21.93;nan;100282.72;5000151;28;20447;-90
2022/04/28 11:48:13;;;;;;;1.93;1.80;;;;;;;21.88;nan;100277.84;5001205;28;20450;-89
2022/04/28 11:50:44;;;;;;;6.73;1.83;;;;;;;21.84;nan;100282.66;5006032;28;20507;-88
2022/04/28 11:53:31;;;;;;;;;;;;;;;;;;;;;
2022/04/28 11:55:57;;;;;;;2.13;1.93;;;;;;;21.85;nan;100284.34;4994208;28;20470;-89
2022/04/28 11:58:23;;;;;;;2.50;2.03;;;;;;;21.73;nan;100264.19;5006794;28;20463;-89
2022/04/28 12:00:49;;;;;;;3.90;2.23;;;;;;;21.72;nan;100267.03;4987049;28;20272;-88
2022/04/28 12:03:26;;;;;;;2.67;1.90;;;;;;;21.78;nan;100271.75;5003094;28;20981;-90
2022/04/28 12:05:56;;;;;;;1.87;1.73;;;;;;;21.79;nan;100266.25;5002939;28;20450;-87
2022/04/28 12:08:40;;;;;;;;;;;;;;;;;;;;;
2022/04/28 12:14:34;;;;;;;;;;;;;;;;;;;;;
2022/04/28 12:19:56;;;;;;;2.27;2.00;;;;;;;21.46;nan;100261.59;5019440;28;20494;-89
2022/04/28 12:22:44;;;;;;;2.00;1.50;;;;;;;21.47;nan;100271.28;5020050;28;20462;-91
2022/04/28 12:28:26;;;;;;;4.43;2.07;;;;;;;21.73;nan;100266.00;5005943;28;20464;-91
2022/04/28 12:30:57;;;;;;;1.80;1.70;;;;;;;21.83;nan;100258.75;5001420;28;20954;-90
2022/04/28 12:33:29;;;;;;;2.00;1.80;;;;;;;21.87;nan;100255.63;5013852;28;20546;-91
2022/04/28 12:36:02;;;;;;;3.10;1.87;;;;;;;21.83;nan;100254.25;5024594;28;20446;-91
2022/04/28 12:38:59;;;;;;;;;;;;;;;;;;;;;
2022/04/28 12:42:10;;;;;;;2.10;1.77;;;;;;;21.76;nan;100255.00;5013237;28;20500;-91
2022/04/28 12:44:59;;;;;;;1.83;1.50;;;;;;;21.56;nan;100257.00;5025312;28;20451;-90
2022/04/28 12:47:48;;;;;;;;;;;;;;;;;;;;;
2022/04/28 12:50:49;;;;;;;3.00;1.80;;;;;;;21.63;nan;100252.75;5016635;28;20555;-90
2022/04/28 12:53:38;;;;;;;3.30;1.73;;;;;;;21.62;nan;100240.34;4993544;28;20429;-88
2022/04/28 12:56:36;;;;;;;2.10;1.87;;;;;;;21.52;nan;100239.59;5016428;28;21025;-92
2022/04/28 12:59:21;;;;;;;2.07;1.97;;;;;;;21.56;nan;100238.31;5011047;28;20526;-91
2022/04/28 13:01:58;;;;;;;2.70;1.60;;;;;;;21.66;nan;100231.03;5013008;28;20556;-89
2022/04/28 13:05:38;;;;;;;2.77;1.97;;;;;;;21.78;nan;100237.81;5009384;28;20461;-89
2022/04/28 13:08:18;;;;;;;2.30;2.13;;;;;;;21.84;nan;100228.34;4989061;28;20438;-90
2022/04/28 13:10:57;;;;;;;2.93;2.13;;;;;;;21.88;nan;100230.56;4979210;28;20453;-90
2022/04/28 13:13:38;;;;;;;1.90;1.80;;;;;;;21.91;nan;100223.22;5008316;28;20979;-90
2022/04/28 13:16:23;;;;;;;3.17;2.10;;;;;;;21.88;nan;100221.69;5009070;28;20548;-90
2022/04/28 13:18:55;;;;;;;2.90;2.00;;;;;;;21.80;nan;100217.13;4990497;28;20509;-90
2022/04/28 13:21:25;;;;;;;2.83;2.20;;;;;;;21.79;nan;100222.59;5002746;28;20498;-90
2022/04/28 13:23:58;;;;;;;4.90;4.37;;;;;;;21.82;nan;100216.97;4991893;28;20450;-92
2022/04/28 13:26:26;;;;;;;2.07;1.97;;;;;;;21.75;nan;100213.22;5010865;28;20464;-90
2022/04/28 13:29:04;;;;;;;2.77;1.60;;;;;;;21.68;nan;100204.97;5010810;28;20478;-89
2022/04/28 13:31:42;;;;;;;2.40;2.20;;;;;;;21.71;nan;100217.19;5008693;28;20434;-90